Boston, Massachusetts
Current Conditions -  °F | °C
As of 5:54 PM on Thursday 23 Oct 2014 (Local Time) from KBOS Reporting Station
Haze Haze  
Wind Chill: 51°   Ceiling: 800
Heat Index: 51°   Visibility: 6mi
Dew Point: 51°   Wind: 36mph
Humidity: 100%   Direction: 10°N
Pressure: 29.61"   Gusts: 40mph
Location:  42.36°N, 71.06°W
Report Text: KBOS 232154Z 01031G35KT 6SM BR BKN008 OVC014 11/11 A2961 RMK AO2 PK WND 02036/2140 RAE19 SLP026 P0000 T01060106
Loading
Personal Weather Stations






























Interactive Weather Map
Tropical Storm Tracking
New forecast layout! Learn more

10-Day Weather Forecast

Advertisements
Track Severe Weather on mobile